createdAt,value
2018-06-21T00:00:58.596Z,18.90
2018-06-21T00:01:58.594Z,19.40
2018-06-21T00:02:58.542Z,19.70
2018-06-21T00:03:58.612Z,18.70
2018-06-21T00:04:58.627Z,18.80
2018-06-21T00:05:58.844Z,19.80
2018-06-21T00:06:58.561Z,18.60
2018-06-21T00:07:58.665Z,19.50
2018-06-21T00:08:58.663Z,19.30
2018-06-21T00:09:58.692Z,19.80
2018-06-21T00:10:58.612Z,19.50
2018-06-21T00:11:58.605Z,19.70
2018-06-21T00:12:58.609Z,20.10
2018-06-21T00:13:58.639Z,19.20
2018-06-21T00:14:58.612Z,19.30
2018-06-21T00:15:58.666Z,19.20
2018-06-21T00:16:58.560Z,18.80
2018-06-21T00:17:58.601Z,19.20
2018-06-21T00:18:58.662Z,19.40
2018-06-21T00:19:58.676Z,19.40
2018-06-21T00:20:58.669Z,21.40
2018-06-21T00:21:58.656Z,19.90
2018-06-21T00:22:58.672Z,19.20
2018-06-21T00:23:58.626Z,20.20
2018-06-21T00:24:58.613Z,20.30
2018-06-21T00:25:58.673Z,20.40
2018-06-21T00:26:58.617Z,20.60
2018-06-21T00:27:58.625Z,20.00
2018-06-21T00:28:58.658Z,20.00
2018-06-21T00:29:58.658Z,20.00
2018-06-21T00:30:58.643Z,20.60
2018-06-21T00:31:58.663Z,19.70
2018-06-21T00:32:58.660Z,19.50
2018-06-21T00:33:58.682Z,19.70
2018-06-21T00:34:58.678Z,20.00
2018-06-21T00:35:58.666Z,19.20
2018-06-21T00:36:58.661Z,20.70
2018-06-21T00:37:58.696Z,21.00
2018-06-21T00:38:58.670Z,20.40
2018-06-21T00:39:58.894Z,21.00
2018-06-21T00:40:58.674Z,21.00
2018-06-21T00:41:58.671Z,20.40
2018-06-21T00:42:59.575Z,20.30
2018-06-21T00:43:58.689Z,19.90
2018-06-21T00:44:58.715Z,21.10
2018-06-21T00:45:58.702Z,20.20
2018-06-21T00:46:58.741Z,20.30
2018-06-21T00:47:58.669Z,20.60
2018-06-21T00:48:58.760Z,20.70
2018-06-21T00:49:58.671Z,21.60
2018-06-21T00:50:58.684Z,21.20
2018-06-21T00:51:58.705Z,21.60
2018-06-21T00:52:58.716Z,20.30
2018-06-21T00:53:58.704Z,21.30
2018-06-21T00:54:58.675Z,20.30
2018-06-21T00:55:58.712Z,20.20
2018-06-21T00:56:58.702Z,19.50
2018-06-21T00:57:58.766Z,20.40
2018-06-21T00:58:58.669Z,21.50
2018-06-21T00:59:58.714Z,20.80
2018-06-21T01:00:58.768Z,20.70
2018-06-21T01:01:58.700Z,20.30
2018-06-21T01:02:58.760Z,18.70
2018-06-21T01:03:58.694Z,17.10
2018-06-21T01:04:58.746Z,16.00
2018-06-21T01:05:58.785Z,16.10
2018-06-21T01:06:58.795Z,16.10
2018-06-21T01:07:58.714Z,16.80
2018-06-21T01:08:58.785Z,16.00
2018-06-21T01:09:58.731Z,15.80
2018-06-21T01:10:58.733Z,16.30
2018-06-21T01:11:58.731Z,18.20
2018-06-21T01:12:58.756Z,16.40
2018-06-21T01:13:59.576Z,17.20
2018-06-21T01:14:58.743Z,17.40
2018-06-21T01:15:58.766Z,16.00
2018-06-21T01:16:58.732Z,14.60
2018-06-21T01:17:58.765Z,15.20
2018-06-21T01:18:58.746Z,15.10
2018-06-21T01:19:58.818Z,16.00
2018-06-21T01:20:58.780Z,15.60
2018-06-21T01:21:58.794Z,15.90
2018-06-21T01:22:59.159Z,14.70
2018-06-21T01:23:58.731Z,14.00
2018-06-21T01:24:58.775Z,14.10
2018-06-21T01:25:58.809Z,14.00
2018-06-21T01:26:58.826Z,13.60
2018-06-21T01:27:58.821Z,13.60
2018-06-21T01:28:58.860Z,13.30
2018-06-21T01:29:58.762Z,12.90
2018-06-21T01:30:58.786Z,12.50
2018-06-21T01:31:58.841Z,11.80
2018-06-21T01:32:58.801Z,12.10
2018-06-21T01:33:58.803Z,11.40
2018-06-21T01:34:58.789Z,12.00
2018-06-21T01:35:58.808Z,11.90
2018-06-21T01:36:58.850Z,11.90
2018-06-21T01:37:58.863Z,11.40
2018-06-21T01:38:58.822Z,11.70
2018-06-21T01:39:58.843Z,12.10
2018-06-21T01:40:58.797Z,10.70
2018-06-21T01:41:58.846Z,11.10
2018-06-21T01:42:58.787Z,10.30
2018-06-21T01:43:58.846Z,11.00
2018-06-21T01:44:58.838Z,9.80
2018-06-21T01:45:58.854Z,10.70
2018-06-21T01:46:58.810Z,10.60
2018-06-21T01:47:58.838Z,10.80
2018-06-21T01:48:58.866Z,10.80
2018-06-21T01:49:58.859Z,9.70
2018-06-21T01:50:58.857Z,9.90
2018-06-21T01:51:58.888Z,10.20
2018-06-21T01:52:58.869Z,9.70
2018-06-21T01:53:58.900Z,9.70
2018-06-21T01:54:58.876Z,9.80
2018-06-21T01:55:58.854Z,9.00
2018-06-21T01:56:58.896Z,9.20
2018-06-21T01:57:58.865Z,10.00
2018-06-21T01:58:58.885Z,9.20
2018-06-21T01:59:58.841Z,9.10
2018-06-21T02:00:58.845Z,8.90
2018-06-21T02:01:58.843Z,8.60
2018-06-21T02:02:58.882Z,9.50
2018-06-21T02:03:58.930Z,8.60
2018-06-21T02:04:58.883Z,9.40
2018-06-21T02:05:58.879Z,9.60
2018-06-21T02:06:58.857Z,9.20
2018-06-21T02:07:58.913Z,9.30
2018-06-21T02:08:58.969Z,9.30
2018-06-21T02:09:58.902Z,9.40
2018-06-21T02:10:59.014Z,9.40
2018-06-21T02:11:58.895Z,9.10
2018-06-21T02:12:58.905Z,9.60
2018-06-21T02:13:58.871Z,9.60
2018-06-21T02:14:58.907Z,9.20
2018-06-21T02:15:58.867Z,10.10
2018-06-21T02:16:58.946Z,9.90
2018-06-21T02:17:58.958Z,10.90
2018-06-21T02:18:58.933Z,10.00
2018-06-21T02:19:58.888Z,10.40
2018-06-21T02:20:58.939Z,10.30
2018-06-21T02:21:58.949Z,9.50
2018-06-21T02:22:58.915Z,10.40
2018-06-21T02:23:58.940Z,10.00
2018-06-21T02:24:58.908Z,9.70
2018-06-21T02:25:58.944Z,10.50
2018-06-21T02:26:58.904Z,10.10
2018-06-21T02:27:58.976Z,10.10
2018-06-21T02:28:58.958Z,9.90
2018-06-21T02:29:58.966Z,10.40
2018-06-21T02:30:58.956Z,10.30
2018-06-21T02:31:58.973Z,10.20
2018-06-21T02:32:58.908Z,11.00
2018-06-21T02:33:58.968Z,10.50
2018-06-21T02:34:58.998Z,10.50
2018-06-21T02:35:58.912Z,10.70
2018-06-21T02:36:58.952Z,10.30
2018-06-21T02:37:58.976Z,10.20
2018-06-21T02:38:58.930Z,9.80
2018-06-21T02:39:58.978Z,10.00
2018-06-21T02:40:58.982Z,10.10
2018-06-21T02:41:58.968Z,10.10
2018-06-21T02:42:59.252Z,9.80
2018-06-21T02:43:59.008Z,9.50
2018-06-21T02:44:59.610Z,9.20
2018-06-21T02:45:58.984Z,10.10
2018-06-21T02:46:58.984Z,9.50
2018-06-21T02:47:58.990Z,9.80
2018-06-21T02:48:59.037Z,10.20
2018-06-21T02:49:58.968Z,9.60
2018-06-21T02:50:58.978Z,11.20
2018-06-21T02:51:59.088Z,9.80
2018-06-21T02:52:59.013Z,10.10
2018-06-21T02:53:58.971Z,9.40
2018-06-21T02:54:58.996Z,10.50
2018-06-21T02:55:59.952Z,10.20
2018-06-21T02:56:59.271Z,10.30
2018-06-21T02:57:59.071Z,10.00
2018-06-21T02:58:59.177Z,10.30
2018-06-21T02:59:59.147Z,10.20
2018-06-21T03:00:59.650Z,10.50
2018-06-21T03:01:59.151Z,10.00
2018-06-21T03:02:59.914Z,10.50
2018-06-21T03:03:59.261Z,10.20
2018-06-21T03:04:59.009Z,10.30
2018-06-21T03:05:59.020Z,10.60
2018-06-21T03:06:59.068Z,11.20
2018-06-21T03:07:59.076Z,10.60
2018-06-21T03:08:59.043Z,10.80
2018-06-21T03:09:59.056Z,10.40
2018-06-21T03:10:59.019Z,10.90
2018-06-21T03:11:59.619Z,11.20
2018-06-21T03:12:59.061Z,11.00
2018-06-21T03:13:59.063Z,11.10
2018-06-21T03:14:59.058Z,10.60
2018-06-21T03:15:59.034Z,10.50
2018-06-21T03:16:59.035Z,10.70
2018-06-21T03:17:59.625Z,10.60
2018-06-21T03:18:59.210Z,10.80
2018-06-21T03:19:59.045Z,12.00
2018-06-21T03:20:59.040Z,11.40
2018-06-21T03:21:59.119Z,10.90
2018-06-21T03:22:59.330Z,11.80
2018-06-21T03:23:59.124Z,11.50
2018-06-21T03:24:59.094Z,11.10
2018-06-21T03:25:59.074Z,11.50
2018-06-21T03:26:59.072Z,11.80
2018-06-21T03:27:59.107Z,11.70
2018-06-21T03:28:59.091Z,11.30
2018-06-21T03:29:59.130Z,11.80
2018-06-21T03:30:59.100Z,11.50
2018-06-21T03:31:59.113Z,11.50
2018-06-21T03:32:59.096Z,11.30
2018-06-21T03:33:59.080Z,11.40
2018-06-21T03:34:59.081Z,11.50
2018-06-21T03:35:59.114Z,11.40
2018-06-21T03:36:59.113Z,11.90
2018-06-21T03:37:59.098Z,13.50
2018-06-21T03:38:59.117Z,12.80
2018-06-21T03:39:59.124Z,12.40
2018-06-21T03:40:59.079Z,12.80
2018-06-21T03:41:59.119Z,12.30
2018-06-21T03:42:59.117Z,12.00
2018-06-21T03:43:59.120Z,12.60
2018-06-21T03:44:59.091Z,12.20
2018-06-21T03:45:59.119Z,12.10
2018-06-21T03:46:59.138Z,11.80
2018-06-21T03:47:59.152Z,12.40
2018-06-21T03:49:00.138Z,11.80
2018-06-21T03:49:59.130Z,10.90
2018-06-21T03:50:59.127Z,11.90
2018-06-21T03:51:59.117Z,12.50
2018-06-21T03:52:59.202Z,11.80
2018-06-21T03:53:59.144Z,10.80
2018-06-21T03:54:59.123Z,11.30
2018-06-21T03:55:59.169Z,11.00
2018-06-21T03:56:59.194Z,10.60
2018-06-21T03:57:59.184Z,12.40
2018-06-21T03:58:59.155Z,11.40
2018-06-21T03:59:59.230Z,12.20
2018-06-21T04:00:59.188Z,11.80
2018-06-21T04:01:59.131Z,12.50
2018-06-21T04:02:59.313Z,12.20
2018-06-21T04:03:59.178Z,12.00
2018-06-21T04:04:59.146Z,11.20
2018-06-21T04:05:59.154Z,10.90
2018-06-21T04:06:59.199Z,11.10
2018-06-21T04:07:59.214Z,11.90
2018-06-21T04:08:59.181Z,11.40
2018-06-21T04:09:59.184Z,11.20
2018-06-21T04:10:59.154Z,11.50
2018-06-21T04:11:59.227Z,11.10
2018-06-21T04:12:59.230Z,11.80
2018-06-21T04:13:59.187Z,13.50
2018-06-21T04:14:59.197Z,11.60
2018-06-21T04:15:59.265Z,11.50
2018-06-21T04:16:59.204Z,11.50
2018-06-21T04:17:59.226Z,11.30
2018-06-21T04:18:59.212Z,10.80
2018-06-21T04:19:59.172Z,12.00
2018-06-21T04:20:59.212Z,11.40
2018-06-21T04:21:59.234Z,11.50
2018-06-21T04:22:59.217Z,10.90
2018-06-21T04:23:59.249Z,10.60
2018-06-21T04:24:59.238Z,11.20
2018-06-21T04:25:59.272Z,10.50
2018-06-21T04:26:59.234Z,11.20
2018-06-21T04:28:01.484Z,12.00
2018-06-21T04:28:59.242Z,11.00
2018-06-21T04:29:59.241Z,11.50
2018-06-21T04:30:59.295Z,11.50
2018-06-21T04:31:59.211Z,11.90
2018-06-21T04:32:59.197Z,11.90
2018-06-21T04:33:59.244Z,11.10
2018-06-21T04:34:59.249Z,11.00
2018-06-21T04:35:59.316Z,11.60
2018-06-21T04:36:59.294Z,12.10
2018-06-21T04:37:59.224Z,10.10
2018-06-21T04:38:59.255Z,11.50
2018-06-21T04:39:59.281Z,12.00
2018-06-21T04:40:59.284Z,12.00
2018-06-21T04:41:59.258Z,12.50
2018-06-21T04:42:59.303Z,12.40
2018-06-21T04:43:59.273Z,11.70
2018-06-21T04:44:59.267Z,11.80
2018-06-21T04:45:59.266Z,11.80
2018-06-21T04:46:59.260Z,14.80
2018-06-21T04:47:59.304Z,13.20
2018-06-21T04:48:59.299Z,13.40
2018-06-21T04:49:59.264Z,14.50
2018-06-21T04:50:59.293Z,12.50
2018-06-21T04:51:59.310Z,12.80
2018-06-21T04:52:59.276Z,13.30
2018-06-21T04:53:59.302Z,13.70
2018-06-21T04:54:59.262Z,13.40
2018-06-21T04:55:59.310Z,13.90
2018-06-21T04:56:59.330Z,13.70
2018-06-21T04:57:59.328Z,15.50
2018-06-21T04:58:59.327Z,15.00
2018-06-21T04:59:59.376Z,14.30
2018-06-21T05:00:59.300Z,14.80
2018-06-21T05:01:59.274Z,17.40
2018-06-21T05:02:59.312Z,15.40
2018-06-21T05:03:59.330Z,16.20
2018-06-21T05:04:59.353Z,16.50
2018-06-21T05:05:59.393Z,16.40
2018-06-21T05:06:59.350Z,16.20
2018-06-21T05:07:59.324Z,16.20
2018-06-21T05:08:59.412Z,16.50
2018-06-21T05:09:59.342Z,17.80
2018-06-21T05:10:59.351Z,17.30
2018-06-21T05:11:59.368Z,17.00
2018-06-21T05:12:59.373Z,17.60
2018-06-21T05:13:59.335Z,18.50
2018-06-21T05:14:59.363Z,17.90
2018-06-21T05:15:59.355Z,19.50
2018-06-21T05:16:59.313Z,20.00
2018-06-21T05:17:59.387Z,20.70
2018-06-21T05:18:59.406Z,22.30
2018-06-21T05:19:59.438Z,21.70
2018-06-21T05:20:59.349Z,25.20
2018-06-21T05:21:59.506Z,25.20
2018-06-21T05:22:59.375Z,25.30
2018-06-21T05:23:59.492Z,26.30
2018-06-21T05:24:59.414Z,26.10
2018-06-21T05:25:59.338Z,27.50
2018-06-21T05:26:59.386Z,26.50
2018-06-21T05:27:59.412Z,27.60
2018-06-21T05:28:59.446Z,27.20
2018-06-21T05:29:59.433Z,27.00
2018-06-21T05:30:59.428Z,29.60
2018-06-21T05:31:59.406Z,28.10
2018-06-21T05:32:59.373Z,29.60
2018-06-21T05:33:59.397Z,30.30
2018-06-21T05:34:59.403Z,31.70
2018-06-21T05:35:59.457Z,30.90
2018-06-21T05:36:59.387Z,32.10
2018-06-21T05:37:59.443Z,33.90
2018-06-21T05:38:59.415Z,33.30
2018-06-21T05:39:59.430Z,32.70
2018-06-21T05:40:59.539Z,34.60
2018-06-21T05:41:59.379Z,34.70
2018-06-21T05:43:00.180Z,34.10
2018-06-21T05:43:59.376Z,33.60
2018-06-21T05:44:59.403Z,35.50
2018-06-21T05:45:59.405Z,33.60
2018-06-21T05:46:59.467Z,34.40
2018-06-21T05:47:59.396Z,36.00
2018-06-21T05:48:59.464Z,34.90
2018-06-21T05:49:59.467Z,33.70
2018-06-21T05:50:59.633Z,34.80
2018-06-21T05:51:59.428Z,34.90
2018-06-21T05:52:59.540Z,34.60
2018-06-21T05:53:59.466Z,32.20
2018-06-21T05:54:59.548Z,30.80
2018-06-21T05:55:59.524Z,31.10
2018-06-21T05:56:59.463Z,26.40
2018-06-21T05:57:59.440Z,27.80
2018-06-21T05:58:59.457Z,25.90
2018-06-21T05:59:59.534Z,27.10
2018-06-21T06:00:59.543Z,24.10
2018-06-21T06:01:59.555Z,20.80
2018-06-21T06:02:59.492Z,21.70
2018-06-21T06:03:59.502Z,21.70
2018-06-21T06:04:59.496Z,21.90
2018-06-21T06:05:59.472Z,20.40
2018-06-21T06:06:59.483Z,19.70
2018-06-21T06:07:59.484Z,19.50
2018-06-21T06:08:59.549Z,18.70
2018-06-21T06:09:59.515Z,18.60
2018-06-21T06:10:59.488Z,17.50
2018-06-21T06:11:59.507Z,16.90
2018-06-21T06:13:01.877Z,15.30
2018-06-21T06:13:59.561Z,14.50
2018-06-21T06:14:59.582Z,13.80
2018-06-21T06:15:59.570Z,14.50
2018-06-21T06:16:59.513Z,14.20
2018-06-21T06:17:59.577Z,15.40
2018-06-21T06:18:59.527Z,16.30
2018-06-21T06:20:00.212Z,13.90
2018-06-21T06:20:59.536Z,13.10
2018-06-21T06:21:59.674Z,13.20
2018-06-21T06:22:59.519Z,13.20
2018-06-21T06:24:00.201Z,12.60
2018-06-21T06:24:59.530Z,10.60
2018-06-21T06:25:59.567Z,9.70
2018-06-21T06:26:59.552Z,10.70
2018-06-21T06:27:59.780Z,11.20
2018-06-21T06:28:59.536Z,10.50
2018-06-21T06:30:00.211Z,9.20
2018-06-21T06:30:59.666Z,9.20
2018-06-21T06:31:59.786Z,10.20
2018-06-21T06:32:59.522Z,9.50
2018-06-21T06:33:59.625Z,9.60
2018-06-21T06:34:59.962Z,10.10
2018-06-21T06:35:59.530Z,9.30
2018-06-21T06:36:59.670Z,9.80
2018-06-21T06:37:59.631Z,11.10
2018-06-21T06:38:59.605Z,11.10
2018-06-21T06:39:59.559Z,11.60
2018-06-21T06:40:59.564Z,10.80
2018-06-21T06:41:59.568Z,10.70
2018-06-21T06:42:59.880Z,10.70
2018-06-21T06:43:59.659Z,11.50
2018-06-21T06:44:59.606Z,11.80
2018-06-21T06:45:59.592Z,11.80
2018-06-21T06:46:59.583Z,10.90
2018-06-21T06:47:59.581Z,12.10
2018-06-21T06:48:59.613Z,12.10
2018-06-21T06:49:59.722Z,13.70
2018-06-21T06:50:59.652Z,12.10
2018-06-21T06:51:59.611Z,12.60
2018-06-21T06:52:59.553Z,12.00
2018-06-21T06:54:00.398Z,12.60
2018-06-21T06:54:59.564Z,12.40
2018-06-21T06:56:59.603Z,11.50
2018-06-21T06:57:59.604Z,12.60
2018-06-21T06:58:59.676Z,12.20
2018-06-21T07:00:00.207Z,13.20
2018-06-21T07:00:59.618Z,13.00
2018-06-21T07:01:59.628Z,13.30
2018-06-21T07:02:59.627Z,13.90
2018-06-21T07:03:59.628Z,13.70
2018-06-21T07:04:59.579Z,12.60
2018-06-21T07:06:00.227Z,12.10
2018-06-21T07:06:59.677Z,12.40
2018-06-21T07:07:59.606Z,12.80
2018-06-21T07:08:59.655Z,13.80
2018-06-21T07:09:59.713Z,13.70
2018-06-21T07:10:59.618Z,14.40
2018-06-21T07:11:59.651Z,13.70
2018-06-21T07:12:59.701Z,13.30
2018-06-21T07:13:59.677Z,13.70
2018-06-21T07:14:59.694Z,12.80
2018-06-21T07:15:59.660Z,12.80
2018-06-21T07:17:02.508Z,12.70
2018-06-21T07:18:21.138Z,12.60
2018-06-21T07:18:59.670Z,13.20
2018-06-21T07:19:59.707Z,12.00
2018-06-21T07:21:00.300Z,12.30
2018-06-21T07:22:00.714Z,11.80
2018-06-21T07:22:59.724Z,12.40
2018-06-21T07:24:00.597Z,10.90
2018-06-21T07:24:59.650Z,11.40
2018-06-21T07:25:59.682Z,11.50
2018-06-21T07:26:59.740Z,10.90
2018-06-21T07:27:59.989Z,11.30
2018-06-21T07:28:59.648Z,10.40
2018-06-21T07:29:59.687Z,9.80
2018-06-21T07:30:59.670Z,8.80
2018-06-21T07:32:00.353Z,8.60
2018-06-21T07:32:59.741Z,10.00
2018-06-21T07:33:59.733Z,7.70
2018-06-21T07:34:59.743Z,8.70
2018-06-21T07:35:59.742Z,8.50
2018-06-21T07:36:59.679Z,8.60
2018-06-21T07:37:59.731Z,7.90
2018-06-21T07:39:01.037Z,8.60
2018-06-21T07:40:00.139Z,8.80
2018-06-21T07:40:59.718Z,8.30
2018-06-21T07:41:59.732Z,7.40
2018-06-21T07:42:59.739Z,9.20
2018-06-21T07:43:59.728Z,7.80
2018-06-21T07:44:59.794Z,8.20
2018-06-21T07:45:59.755Z,8.30
2018-06-21T07:46:59.769Z,9.00
2018-06-21T07:47:59.718Z,7.20
2018-06-21T07:49:00.229Z,11.40
2018-06-21T07:49:59.738Z,7.80
2018-06-21T07:50:59.765Z,12.00
2018-06-21T07:51:59.702Z,10.40
2018-06-21T07:52:59.758Z,7.80
2018-06-21T07:53:59.713Z,7.70
2018-06-21T07:54:59.859Z,8.20
2018-06-21T07:55:59.838Z,7.60
2018-06-21T07:56:59.726Z,7.60
2018-06-21T07:57:59.753Z,9.70
2018-06-21T07:58:59.864Z,6.80
2018-06-21T07:59:59.750Z,7.70
2018-06-21T08:00:59.806Z,7.20
2018-06-21T08:02:00.367Z,6.60
2018-06-21T08:02:59.777Z,6.60
2018-06-21T08:04:00.359Z,10.70
2018-06-21T08:04:59.861Z,7.50
2018-06-21T08:05:59.834Z,7.30
2018-06-21T08:06:59.897Z,6.10
2018-06-21T08:07:59.764Z,6.40
2018-06-21T08:08:59.823Z,7.40
2018-06-21T08:10:04.393Z,8.20
2018-06-21T08:10:59.778Z,7.20
2018-06-21T08:11:59.895Z,7.50
2018-06-21T08:12:59.867Z,8.90
2018-06-21T08:13:59.795Z,6.20
2018-06-21T08:14:59.780Z,7.40
2018-06-21T08:15:59.846Z,6.80
2018-06-21T08:16:59.924Z,7.40
2018-06-21T08:17:59.845Z,7.40
2018-06-21T08:18:59.863Z,7.70
2018-06-21T08:20:00.386Z,6.10
2018-06-21T08:20:59.853Z,6.50
2018-06-21T08:21:59.968Z,6.90
2018-06-21T08:23:00.510Z,7.20
2018-06-21T08:23:59.820Z,5.40
2018-06-21T08:25:00.147Z,6.40
2018-06-21T08:25:59.942Z,7.50
2018-06-21T08:26:59.916Z,6.80
2018-06-21T08:27:59.905Z,6.90
2018-06-21T08:28:59.910Z,6.30
2018-06-21T08:30:00.859Z,6.30
2018-06-21T08:31:00.912Z,6.50
2018-06-21T08:32:03.000Z,5.30
2018-06-21T08:33:02.848Z,5.40
2018-06-21T08:33:59.986Z,6.80
2018-06-21T08:35:09.492Z,8.10
2018-06-21T08:36:00.345Z,7.70
2018-06-21T08:37:00.116Z,6.50
2018-06-21T08:37:59.985Z,7.80
2018-06-21T08:39:00.224Z,6.40
2018-06-21T08:40:00.103Z,7.00
2018-06-21T08:41:00.222Z,6.00
2018-06-21T08:41:59.929Z,5.30
2018-06-21T08:43:00.009Z,5.00
2018-06-21T08:43:59.962Z,6.10
2018-06-21T08:45:00.057Z,6.70
2018-06-21T08:46:00.007Z,5.10
2018-06-21T08:47:00.047Z,7.20
2018-06-21T08:47:59.996Z,5.20
2018-06-21T08:49:04.906Z,5.10
2018-06-21T08:49:59.986Z,6.10
2018-06-21T08:50:59.991Z,6.20
2018-06-21T08:52:00.943Z,5.70
2018-06-21T08:53:00.109Z,5.90
2018-06-21T08:54:00.017Z,5.70
2018-06-21T08:55:00.040Z,5.80
2018-06-21T08:56:00.660Z,6.90
2018-06-21T08:57:01.388Z,6.10
2018-06-21T08:58:00.906Z,5.80
2018-06-21T08:59:00.028Z,6.30
2018-06-21T09:00:00.117Z,5.30
2018-06-21T09:01:00.803Z,4.60
2018-06-21T09:02:00.087Z,5.50
2018-06-21T09:03:00.121Z,4.70
2018-06-21T09:04:00.042Z,7.50
2018-06-21T09:05:00.082Z,4.90
2018-06-21T09:06:00.098Z,5.00
2018-06-21T09:07:02.913Z,6.30
2018-06-21T09:08:00.164Z,6.50
2018-06-21T09:09:00.769Z,4.90
2018-06-21T09:10:00.123Z,4.30
2018-06-21T09:11:00.104Z,4.90
2018-06-21T09:12:00.132Z,4.50
2018-06-21T09:13:00.161Z,5.90
2018-06-21T09:14:00.771Z,5.60
2018-06-21T09:15:00.456Z,4.50
2018-06-21T09:16:01.745Z,6.30
2018-06-21T09:17:00.219Z,6.60
2018-06-21T09:18:06.934Z,7.30
2018-06-21T09:19:00.171Z,6.60
2018-06-21T09:20:00.146Z,4.80
2018-06-21T09:21:00.246Z,5.60
2018-06-21T09:22:00.227Z,5.50
2018-06-21T09:23:00.219Z,5.80
2018-06-21T09:24:00.356Z,5.30
2018-06-21T09:25:00.195Z,6.40
2018-06-21T09:26:08.504Z,6.10
2018-06-21T09:27:00.869Z,5.30
2018-06-21T09:28:00.242Z,5.30
2018-06-21T09:29:00.272Z,4.60
2018-06-21T09:30:00.348Z,6.20
2018-06-21T09:31:00.785Z,5.30
2018-06-21T09:32:00.308Z,5.30
2018-06-21T09:33:00.314Z,5.20
2018-06-21T09:34:00.347Z,6.80
2018-06-21T09:35:00.293Z,5.00
2018-06-21T09:36:00.308Z,7.10
2018-06-21T09:37:00.455Z,5.50
2018-06-21T09:38:00.310Z,5.60
2018-06-21T09:39:00.263Z,5.20
2018-06-21T09:40:00.293Z,6.00
2018-06-21T09:41:00.367Z,5.50
2018-06-21T09:42:00.296Z,5.30
2018-06-21T09:43:00.322Z,6.20
2018-06-21T09:44:03.821Z,5.60
2018-06-21T09:45:00.328Z,5.80
2018-06-21T09:46:00.415Z,6.10
2018-06-21T09:47:00.797Z,5.40
2018-06-21T09:48:00.422Z,5.80
2018-06-21T09:49:00.405Z,9.90
2018-06-21T09:50:00.380Z,11.30
2018-06-21T09:51:00.419Z,9.50
2018-06-21T09:52:00.388Z,7.80
2018-06-21T09:53:00.438Z,5.90
2018-06-21T09:54:00.474Z,4.40
2018-06-21T09:55:00.430Z,4.90
2018-06-21T09:56:00.435Z,4.60
2018-06-21T09:57:00.424Z,7.10
2018-06-21T09:58:01.305Z,6.10
2018-06-21T09:59:00.474Z,6.90
2018-06-21T10:00:00.931Z,6.10
2018-06-21T10:01:00.514Z,6.20
2018-06-21T10:02:00.625Z,6.80
2018-06-21T10:03:01.450Z,6.50
2018-06-21T10:04:00.531Z,6.40
2018-06-21T10:05:00.542Z,5.90
2018-06-21T10:06:00.792Z,5.70
2018-06-21T10:07:00.690Z,4.40
2018-06-21T10:08:00.551Z,5.50
2018-06-21T10:09:01.312Z,6.00
2018-06-21T10:10:00.645Z,5.50
2018-06-21T10:11:00.688Z,5.40
2018-06-21T10:12:01.569Z,6.50
2018-06-21T10:13:00.930Z,6.00
2018-06-21T10:14:00.679Z,6.80
2018-06-21T10:15:01.311Z,5.40
2018-06-21T10:16:00.703Z,9.70
2018-06-21T10:17:00.654Z,6.20
2018-06-21T10:18:00.669Z,5.90
2018-06-21T10:19:01.305Z,5.00
2018-06-21T10:20:00.679Z,6.90
2018-06-21T10:21:00.726Z,5.10
2018-06-21T10:22:00.726Z,7.90
2018-06-21T10:23:00.702Z,5.50
2018-06-21T10:24:00.806Z,5.10
2018-06-21T10:25:00.817Z,6.60
2018-06-21T10:26:00.758Z,4.70
2018-06-21T10:27:00.734Z,4.40
2018-06-21T10:28:00.789Z,6.10
2018-06-21T10:29:00.794Z,7.20
2018-06-21T10:30:06.672Z,6.60
2018-06-21T10:31:02.340Z,5.00
2018-06-21T10:32:00.841Z,6.10
2018-06-21T10:33:00.963Z,5.60
2018-06-21T10:34:00.927Z,6.10
2018-06-21T10:35:00.939Z,8.40
2018-06-21T10:36:00.969Z,6.30
2018-06-21T10:37:00.924Z,5.60
2018-06-21T10:38:00.891Z,6.80
2018-06-21T10:39:01.003Z,5.50
2018-06-21T10:40:00.911Z,5.00
2018-06-21T10:41:01.428Z,4.90
2018-06-21T10:42:08.326Z,6.40
2018-06-21T10:43:11.545Z,6.10
2018-06-21T10:44:00.954Z,6.10
2018-06-21T10:45:01.058Z,6.70
2018-06-21T10:46:01.838Z,6.70
2018-06-21T10:47:01.034Z,5.10
2018-06-21T10:48:01.040Z,7.00
2018-06-21T10:49:01.112Z,6.10
2018-06-21T10:50:01.055Z,7.70
2018-06-21T10:51:01.024Z,6.10
2018-06-21T10:52:01.099Z,6.20
2018-06-21T10:53:01.024Z,5.00
2018-06-21T10:54:01.055Z,4.90
2018-06-21T10:55:01.836Z,5.80
2018-06-21T10:56:01.039Z,4.50
2018-06-21T10:57:01.084Z,5.20
2018-06-21T10:58:01.090Z,5.10
2018-06-21T10:59:01.061Z,7.30
2018-06-21T11:00:01.151Z,6.00
2018-06-21T11:01:01.081Z,4.40
2018-06-21T11:02:01.081Z,5.80
2018-06-21T11:03:01.239Z,7.90
2018-06-21T11:04:01.072Z,7.20
2018-06-21T11:05:01.082Z,7.00
2018-06-21T11:06:01.066Z,9.90
2018-06-21T11:07:01.140Z,4.90
2018-06-21T11:08:01.122Z,5.40
2018-06-21T11:09:01.125Z,6.70
2018-06-21T11:10:01.156Z,6.20
2018-06-21T11:11:01.105Z,6.60
2018-06-21T11:12:01.163Z,6.50
2018-06-21T11:13:01.148Z,8.50
2018-06-21T11:14:01.191Z,8.80
2018-06-21T11:15:01.243Z,5.70
2018-06-21T11:16:01.325Z,4.40
2018-06-21T11:17:01.332Z,5.60
2018-06-21T11:18:01.219Z,5.90
2018-06-21T11:19:01.263Z,7.00
2018-06-21T11:20:01.191Z,5.30
2018-06-21T11:21:01.140Z,4.90
2018-06-21T11:22:01.244Z,4.60
2018-06-21T11:23:01.880Z,6.90
2018-06-21T11:24:01.235Z,7.10
2018-06-21T11:25:01.383Z,6.60
2018-06-21T11:26:01.992Z,5.30
2018-06-21T11:27:01.212Z,4.50
2018-06-21T11:28:01.269Z,9.10
2018-06-21T11:29:01.296Z,7.10
2018-06-21T11:30:01.897Z,7.00
2018-06-21T11:31:01.341Z,5.50
2018-06-21T11:32:01.273Z,5.40
2018-06-21T11:33:01.484Z,5.60
2018-06-21T11:34:02.059Z,5.30
2018-06-21T11:35:01.269Z,5.90
2018-06-21T11:36:01.852Z,7.10
2018-06-21T11:37:01.373Z,6.50
2018-06-21T11:38:01.227Z,7.30
2018-06-21T11:39:01.381Z,6.70
2018-06-21T11:40:01.400Z,7.90
2018-06-21T11:41:01.295Z,8.20
2018-06-21T11:42:01.306Z,5.90
2018-06-21T11:43:01.338Z,5.80
2018-06-21T11:44:01.286Z,5.70
2018-06-21T11:45:01.861Z,4.80
2018-06-21T11:46:01.301Z,5.60
2018-06-21T11:47:01.316Z,5.20
2018-06-21T11:48:01.331Z,7.80
2018-06-21T11:49:01.411Z,5.10
2018-06-21T11:50:02.044Z,6.30
2018-06-21T11:51:01.467Z,4.40
2018-06-21T11:52:01.421Z,3.80
2018-06-21T11:53:01.356Z,6.30
2018-06-21T11:54:01.372Z,5.30
2018-06-21T11:55:01.922Z,5.90
2018-06-21T11:56:02.226Z,6.10
2018-06-21T11:57:02.496Z,5.50
2018-06-21T11:58:02.863Z,6.80
2018-06-21T11:59:01.644Z,5.30
2018-06-21T12:00:01.427Z,6.90
2018-06-21T12:01:01.693Z,3.80
2018-06-21T12:02:01.624Z,4.20
2018-06-21T12:03:01.452Z,5.00
2018-06-21T12:04:01.641Z,4.90
2018-06-21T12:05:01.417Z,7.40
2018-06-21T12:06:01.356Z,7.20
2018-06-21T12:07:01.370Z,5.50
2018-06-21T12:08:01.501Z,5.20
2018-06-21T12:09:02.080Z,6.30
2018-06-21T12:10:04.008Z,6.90
2018-06-21T12:11:03.980Z,5.60
2018-06-21T12:12:01.469Z,6.70
2018-06-21T12:13:01.449Z,7.10
2018-06-21T12:14:01.386Z,7.20
2018-06-21T12:15:01.503Z,6.50
2018-06-21T12:16:01.518Z,5.80
2018-06-21T12:17:01.422Z,7.60
2018-06-21T12:18:01.872Z,5.70
2018-06-21T12:19:01.425Z,7.00
2018-06-21T12:20:01.441Z,6.90
2018-06-21T12:21:01.457Z,6.10
2018-06-21T12:22:01.472Z,6.80
2018-06-21T12:23:02.068Z,5.90
2018-06-21T12:24:01.443Z,5.70
2018-06-21T12:25:01.594Z,7.80
2018-06-21T12:26:01.514Z,10.10
2018-06-21T12:27:01.415Z,6.30
2018-06-21T12:28:01.491Z,7.30
2018-06-21T12:29:01.587Z,8.80
2018-06-21T12:30:01.489Z,8.60
2018-06-21T12:31:01.963Z,5.20
2018-06-21T12:32:08.111Z,7.50
2018-06-21T12:33:04.029Z,5.80
2018-06-21T12:34:01.931Z,9.00
2018-06-21T12:35:01.483Z,8.10
2018-06-21T12:36:01.562Z,7.60
2018-06-21T12:37:01.534Z,6.00
2018-06-21T12:38:01.677Z,6.90
2018-06-21T12:39:01.576Z,6.90
2018-06-21T12:40:02.132Z,8.70
2018-06-21T12:41:01.539Z,5.00
2018-06-21T12:42:01.938Z,5.70
2018-06-21T12:43:01.577Z,5.60
2018-06-21T12:44:02.154Z,5.10
2018-06-21T12:45:01.532Z,4.10
2018-06-21T12:46:01.703Z,3.90
2018-06-21T12:47:01.566Z,4.90
2018-06-21T12:48:01.511Z,5.20
2018-06-21T12:50:01.547Z,5.90
2018-06-21T12:51:05.056Z,9.30
2018-06-21T12:52:02.483Z,5.00
2018-06-21T12:53:02.290Z,5.90
2018-06-21T12:54:01.977Z,4.70
2018-06-21T12:55:04.260Z,5.30
2018-06-21T12:56:01.543Z,5.40
2018-06-21T12:57:01.754Z,8.50
2018-06-21T12:58:02.037Z,5.20
2018-06-21T12:59:02.591Z,6.70
2018-06-21T13:00:02.263Z,5.90
2018-06-21T13:01:01.633Z,8.00
2018-06-21T13:02:01.690Z,8.50
2018-06-21T13:03:01.669Z,8.70
2018-06-21T13:04:01.599Z,4.70
2018-06-21T13:05:01.865Z,7.00
2018-06-21T13:06:01.625Z,4.90
2018-06-21T13:07:01.572Z,5.80